sensor_id;sensor_type;location;lat;lon;timestamp;pressure;altitude;pressure_sealevel;temperature;humidity
67434;BME280;54305;47.950;6.572;2023-01-19T00:01:34;93303.06;;;-2.37;100.00
67434;BME280;54305;47.950;6.572;2023-01-19T00:03:59;93303.25;;;-2.40;100.00
67434;BME280;54305;47.950;6.572;2023-01-19T00:06:24;93305.56;;;-2.48;100.00
67434;BME280;54305;47.950;6.572;2023-01-19T00:08:50;93309.47;;;-2.55;100.00
67434;BME280;54305;47.950;6.572;2023-01-19T00:11:15;93321.50;;;-2.57;100.00
67434;BME280;54305;47.950;6.572;2023-01-19T00:13:43;93314.78;;;-2.58;100.00
67434;BME280;54305;47.950;6.572;2023-01-19T00:16:15;93317.59;;;-2.50;100.00
67434;BME280;54305;47.950;6.572;2023-01-19T00:18:42;93314.94;;;-2.48;100.00
67434;BME280;54305;47.950;6.572;2023-01-19T00:21:07;93318.53;;;-2.51;100.00
67434;BME280;54305;47.950;6.572;2023-01-19T00:23:33;93315.75;;;-2.48;100.00
67434;BME280;54305;47.950;6.572;2023-01-19T00:25:58;93318.22;;;-2.46;100.00
67434;BME280;54305;47.950;6.572;2023-01-19T00:28:23;93324.34;;;-2.49;100.00
67434;BME280;54305;47.950;6.572;2023-01-19T00:30:48;93320.03;;;-2.48;100.00
67434;BME280;54305;47.950;6.572;2023-01-19T00:33:14;93322.00;;;-2.52;100.00
67434;BME280;54305;47.950;6.572;2023-01-19T00:35:40;93320.84;;;-2.48;100.00
67434;BME280;54305;47.950;6.572;2023-01-19T00:38:06;93333.63;;;-2.37;100.00
67434;BME280;54305;47.950;6.572;2023-01-19T00:40:32;93321.06;;;-2.51;100.00
67434;BME280;54305;47.950;6.572;2023-01-19T00:42:57;93334.75;;;-2.52;100.00
67434;BME280;54305;47.950;6.572;2023-01-19T00:45:23;93326.75;;;-2.47;100.00
67434;BME280;54305;47.950;6.572;2023-01-19T00:47:49;93336.16;;;-2.48;100.00
67434;BME280;54305;47.950;6.572;2023-01-19T00:50:18;93333.75;;;-2.62;100.00
67434;BME280;54305;47.950;6.572;2023-01-19T00:52:44;93338.22;;;-2.53;100.00
67434;BME280;54305;47.950;6.572;2023-01-19T00:55:11;93339.38;;;-2.46;100.00
67434;BME280;54305;47.950;6.572;2023-01-19T00:57:38;93340.03;;;-2.55;100.00
67434;BME280;54305;47.950;6.572;2023-01-19T01:00:05;93340.28;;;-2.58;100.00
67434;BME280;54305;47.950;6.572;2023-01-19T01:02:31;93338.22;;;-2.53;100.00
67434;BME280;54305;47.950;6.572;2023-01-19T01:04:56;93341.34;;;-2.49;100.00
67434;BME280;54305;47.950;6.572;2023-01-19T01:07:21;93346.81;;;-2.43;100.00
67434;BME280;54305;47.950;6.572;2023-01-19T01:09:47;93337.97;;;-2.50;100.00
67434;BME280;54305;47.950;6.572;2023-01-19T01:12:12;93341.44;;;-2.51;100.00
67434;BME280;54305;47.950;6.572;2023-01-19T01:14:37;93344.28;;;-2.43;100.00
67434;BME280;54305;47.950;6.572;2023-01-19T01:17:03;93355.06;;;-2.39;100.00
67434;BME280;54305;47.950;6.572;2023-01-19T01:19:28;93350.78;;;-2.39;100.00
67434;BME280;54305;47.950;6.572;2023-01-19T01:21:53;93344.88;;;-2.39;100.00
67434;BME280;54305;47.950;6.572;2023-01-19T01:24:19;93353.53;;;-2.42;100.00
67434;BME280;54305;47.950;6.572;2023-01-19T01:26:45;93354.03;;;-2.37;100.00
67434;BME280;54305;47.950;6.572;2023-01-19T01:29:10;93355.66;;;-2.36;100.00
67434;BME280;54305;47.950;6.572;2023-01-19T01:31:35;93363.78;;;-2.31;100.00
67434;BME280;54305;47.950;6.572;2023-01-19T01:34:00;93353.59;;;-2.31;100.00
67434;BME280;54305;47.950;6.572;2023-01-19T01:36:26;93350.09;;;-2.30;100.00
67434;BME280;54305;47.950;6.572;2023-01-19T01:38:55;93351.66;;;-2.27;100.00
67434;BME280;54305;47.950;6.572;2023-01-19T01:41:20;93347.13;;;-2.24;100.00
67434;BME280;54305;47.950;6.572;2023-01-19T01:43:50;93356.78;;;-2.16;100.00
67434;BME280;54305;47.950;6.572;2023-01-19T01:46:18;93354.78;;;-2.24;100.00
67434;BME280;54305;47.950;6.572;2023-01-19T01:48:48;93355.94;;;-2.28;100.00
67434;BME280;54305;47.950;6.572;2023-01-19T01:51:18;93355.94;;;-2.28;100.00
67434;BME280;54305;47.950;6.572;2023-01-19T01:54:09;93353.16;;;-2.25;100.00
67434;BME280;54305;47.950;6.572;2023-01-19T01:56:40;93346.66;;;-2.29;100.00
67434;BME280;54305;47.950;6.572;2023-01-19T01:59:08;93354.88;;;-2.25;100.00
67434;BME280;54305;47.950;6.572;2023-01-19T02:01:34;93353.75;;;-2.21;100.00
67434;BME280;54305;47.950;6.572;2023-01-19T02:04:19;93352.34;;;-2.25;100.00
67434;BME280;54305;47.950;6.572;2023-01-19T02:06:45;93354.78;;;-2.24;100.00
67434;BME280;54305;47.950;6.572;2023-01-19T02:09:29;93355.72;;;-2.25;100.00
67434;BME280;54305;47.950;6.572;2023-01-19T02:12:15;93352.94;;;-2.22;100.00
67434;BME280;54305;47.950;6.572;2023-01-19T02:15:00;93350.06;;;-2.17;100.00
67434;BME280;54305;47.950;6.572;2023-01-19T02:17:25;93355.75;;;-2.14;100.00
67434;BME280;54305;47.950;6.572;2023-01-19T02:19:50;93346.97;;;-2.10;100.00
67434;BME280;54305;47.950;6.572;2023-01-19T02:22:19;93347.75;;;-2.09;100.00
67434;BME280;54305;47.950;6.572;2023-01-19T02:24:49;93345.09;;;-2.08;100.00
67434;BME280;54305;47.950;6.572;2023-01-19T02:27:14;93348.56;;;-2.09;100.00
67434;BME280;54305;47.950;6.572;2023-01-19T02:29:40;93349.97;;;-2.05;100.00
67434;BME280;54305;47.950;6.572;2023-01-19T02:32:07;93342.81;;;-2.00;100.00
67434;BME280;54305;47.950;6.572;2023-01-19T02:34:32;93343.03;;;-2.03;100.00
67434;BME280;54305;47.950;6.572;2023-01-19T02:36:59;93344.66;;;-2.02;100.00
67434;BME280;54305;47.950;6.572;2023-01-19T02:39:32;93346.50;;;-2.04;100.00
67434;BME280;54305;47.950;6.572;2023-01-19T02:42:00;93343.94;;;-2.04;100.00
67434;BME280;54305;47.950;6.572;2023-01-19T02:44:26;93340.47;;;-2.03;100.00
67434;BME280;54305;47.950;6.572;2023-01-19T02:46:53;93342.34;;;-2.05;100.00
67434;BME280;54305;47.950;6.572;2023-01-19T02:49:19;93346.50;;;-2.04;100.00
67434;BME280;54305;47.950;6.572;2023-01-19T02:51:44;93345.69;;;-2.04;100.00
67434;BME280;54305;47.950;6.572;2023-01-19T02:54:16;93349.53;;;-1.99;100.00
67434;BME280;54305;47.950;6.572;2023-01-19T02:59:26;93349.53;;;-1.99;100.00
67434;BME280;54305;47.950;6.572;2023-01-19T03:01:59;93358.81;;;-1.98;100.00
67434;BME280;54305;47.950;6.572;2023-01-19T03:05:17;93364.63;;;-1.96;100.00
67434;BME280;54305;47.950;6.572;2023-01-19T03:07:55;93360.56;;;-1.98;100.00
67434;BME280;54305;47.950;6.572;2023-01-19T03:10:07;93364.81;;;-2.10;100.00
67434;BME280;54305;47.950;6.572;2023-01-19T03:12:46;93373.50;;;-2.12;100.00
67434;BME280;54305;47.950;6.572;2023-01-19T03:15:18;93367.53;;;-2.24;100.00
67434;BME280;54305;47.950;6.572;2023-01-19T03:17:47;93368.22;;;-2.22;100.00
67434;BME280;54305;47.950;6.572;2023-01-19T03:20:13;93366.97;;;-2.16;100.00
67434;BME280;54305;47.950;6.572;2023-01-19T03:22:40;93364.41;;;-2.27;100.00
67434;BME280;54305;47.950;6.572;2023-01-19T03:25:06;93369.13;;;-2.34;100.00
67434;BME280;54305;47.950;6.572;2023-01-19T03:27:33;93364.81;;;-2.33;100.00
67434;BME280;54305;47.950;6.572;2023-01-19T03:30:08;93368.50;;;-2.37;100.00
67434;BME280;54305;47.950;6.572;2023-01-19T03:32:36;93363.78;;;-2.31;100.00
67434;BME280;54305;47.950;6.572;2023-01-19T03:35:05;93364.16;;;-2.24;100.00
67434;BME280;54305;47.950;6.572;2023-01-19T03:37:33;93367.63;;;-2.25;100.00
67434;BME280;54305;47.950;6.572;2023-01-19T03:40:01;93371.91;;;-2.26;100.00
67434;BME280;54305;47.950;6.572;2023-01-19T03:42:26;93372.81;;;-2.38;100.00
67434;BME280;54305;47.950;6.572;2023-01-19T03:44:52;93370.94;;;-2.36;100.00
67434;BME280;54305;47.950;6.572;2023-01-19T03:47:20;93369.75;;;-2.43;100.00
67434;BME280;54305;47.950;6.572;2023-01-19T03:49:46;93369.75;;;-2.43;100.00
67434;BME280;54305;47.950;6.572;2023-01-19T03:52:14;93371.97;;;-2.38;100.00
67434;BME280;54305;47.950;6.572;2023-01-19T03:54:39;93378.38;;;-2.33;100.00
67434;BME280;54305;47.950;6.572;2023-01-19T03:57:05;93377.19;;;-2.40;100.00
67434;BME280;54305;47.950;6.572;2023-01-19T03:59:30;93376.88;;;-2.35;100.00
67434;BME280;54305;47.950;6.572;2023-01-19T04:01:55;93370.34;;;-2.39;100.00
67434;BME280;54305;47.950;6.572;2023-01-19T04:04:21;93374.41;;;-2.37;100.00
67434;BME280;54305;47.950;6.572;2023-01-19T04:06:46;93383.47;;;-2.33;100.00
67434;BME280;54305;47.950;6.572;2023-01-19T04:09:11;93382.06;;;-2.37;100.00
67434;BME280;54305;47.950;6.572;2023-01-19T04:11:36;93375.59;;;-2.30;100.00
67434;BME280;54305;47.950;6.572;2023-01-19T04:14:02;93380.22;;;-2.35;100.00
67434;BME280;54305;47.950;6.572;2023-01-19T04:16:27;93390.34;;;-2.46;100.00
67434;BME280;54305;47.950;6.572;2023-01-19T04:18:53;93378.75;;;-2.50;100.00
67434;BME280;54305;47.950;6.572;2023-01-19T04:21:18;93387.13;;;-2.48;100.00
67434;BME280;54305;47.950;6.572;2023-01-19T04:23:46;93382.72;;;-2.46;100.00
67434;BME280;54305;47.950;6.572;2023-01-19T04:26:11;93383.63;;;-2.47;100.00
67434;BME280;54305;47.950;6.572;2023-01-19T04:28:36;93382.59;;;-2.44;100.00
67434;BME280;54305;47.950;6.572;2023-01-19T04:31:02;93374.88;;;-2.43;100.00
67434;BME280;54305;47.950;6.572;2023-01-19T04:33:28;93378.00;;;-2.39;100.00
67434;BME280;54305;47.950;6.572;2023-01-19T04:35:53;93384.09;;;-2.53;100.00
67434;BME280;54305;47.950;6.572;2023-01-19T04:38:19;93380.06;;;-2.68;100.00
67434;BME280;54305;47.950;6.572;2023-01-19T04:40:45;93381.25;;;-2.61;100.00
67434;BME280;54305;47.950;6.572;2023-01-19T04:43:10;93384.72;;;-2.62;100.00
67434;BME280;54305;47.950;6.572;2023-01-19T04:45:36;93386.13;;;-2.58;100.00
67434;BME280;54305;47.950;6.572;2023-01-19T04:48:02;93389.81;;;-2.62;100.00
67434;BME280;54305;47.950;6.572;2023-01-19T04:50:28;93392.84;;;-2.57;100.00
67434;BME280;54305;47.950;6.572;2023-01-19T04:52:53;93394.69;;;-2.59;100.00
67434;BME280;54305;47.950;6.572;2023-01-19T04:55:19;93400.00;;;-2.62;100.00
67434;BME280;54305;47.950;6.572;2023-01-19T04:57:44;93408.16;;;-2.57;100.00
67434;BME280;54305;47.950;6.572;2023-01-19T05:00:09;93415.09;;;-2.71;100.00
67434;BME280;54305;47.950;6.572;2023-01-19T05:02:35;93414.50;;;-2.75;100.00
67434;BME280;54305;47.950;6.572;2023-01-19T05:05:01;93410.44;;;-2.77;100.00
67434;BME280;54305;47.950;6.572;2023-01-19T05:07:26;93408.00;;;-2.79;100.00
67434;BME280;54305;47.950;6.572;2023-01-19T05:09:51;93413.72;;;-2.88;100.00
67434;BME280;54305;47.950;6.572;2023-01-19T05:12:17;93413.94;;;-2.91;100.00
67434;BME280;54305;47.950;6.572;2023-01-19T05:14:43;93417.41;;;-2.92;100.00
67434;BME280;54305;47.950;6.572;2023-01-19T05:17:08;93418.44;;;-2.94;100.00
67434;BME280;54305;47.950;6.572;2023-01-19T05:19:33;93414.97;;;-2.93;100.00
67434;BME280;54305;47.950;6.572;2023-01-19T05:22:00;93409.53;;;-2.89;100.00
67434;BME280;54305;47.950;6.572;2023-01-19T05:24:25;93417.00;;;-2.86;100.00
67434;BME280;54305;47.950;6.572;2023-01-19T05:26:51;93408.91;;;-2.80;100.00
67434;BME280;54305;47.950;6.572;2023-01-19T05:29:16;93411.47;;;-2.80;100.00
67434;BME280;54305;47.950;6.572;2023-01-19T05:31:41;93409.16;;;-2.83;100.00
67434;BME280;54305;47.950;6.572;2023-01-19T05:34:08;93411.03;;;-2.74;100.00
67434;BME280;54305;47.950;6.572;2023-01-19T05:36:34;93410.84;;;-2.71;100.00
67434;BME280;54305;47.950;6.572;2023-01-19T05:39:00;93408.78;;;-2.66;100.00
67434;BME280;54305;47.950;6.572;2023-01-19T05:41:25;93405.09;;;-2.62;100.00
67434;BME280;54305;47.950;6.572;2023-01-19T05:43:50;93413.44;;;-2.60;100.00
67434;BME280;54305;47.950;6.572;2023-01-19T05:46:15;93407.94;;;-2.54;100.00
67434;BME280;54305;47.950;6.572;2023-01-19T05:48:41;93412.59;;;-2.48;100.00
67434;BME280;54305;47.950;6.572;2023-01-19T05:51:06;93422.34;;;-2.42;100.00
67434;BME280;54305;47.950;6.572;2023-01-19T05:53:31;93418.28;;;-2.44;100.00
67434;BME280;54305;47.950;6.572;2023-01-19T05:56:03;93419.97;;;-2.56;100.00
67434;BME280;54305;47.950;6.572;2023-01-19T05:58:29;93416.47;;;-2.55;100.00
67434;BME280;54305;47.950;6.572;2023-01-19T06:00:55;93421.59;;;-2.55;100.00
67434;BME280;54305;47.950;6.572;2023-01-19T06:03:20;93421.38;;;-2.52;100.00
67434;BME280;54305;47.950;6.572;2023-01-19T06:05:45;93425.94;;;-2.44;100.00
67434;BME280;54305;47.950;6.572;2023-01-19T06:08:10;93424.22;;;-2.44;100.00
67434;BME280;54305;47.950;6.572;2023-01-19T06:10:36;93427.66;;;-2.45;100.00
67434;BME280;54305;47.950;6.572;2023-01-19T06:13:01;93427.56;;;-2.43;100.00
67434;BME280;54305;47.950;6.572;2023-01-19T06:15:26;93429.06;;;-2.41;100.00
67434;BME280;54305;47.950;6.572;2023-01-19T06:17:51;93430.00;;;-2.42;100.00
67434;BME280;54305;47.950;6.572;2023-01-19T06:20:17;93434.59;;;-2.47;100.00
67434;BME280;54305;47.950;6.572;2023-01-19T06:22:42;93426.97;;;-2.47;100.00
67434;BME280;54305;47.950;6.572;2023-01-19T06:25:07;93443.19;;;-2.48;100.00
67434;BME280;54305;47.950;6.572;2023-01-19T06:27:33;93431.38;;;-2.49;100.00
67434;BME280;54305;47.950;6.572;2023-01-19T06:29:58;93429.13;;;-2.53;100.00
67434;BME280;54305;47.950;6.572;2023-01-19T06:32:23;93438.53;;;-2.54;100.00
67434;BME280;54305;47.950;6.572;2023-01-19T06:34:49;93433.44;;;-2.54;100.00
67434;BME280;54305;47.950;6.572;2023-01-19T06:37:14;93441.56;;;-2.49;100.00
67434;BME280;54305;47.950;6.572;2023-01-19T06:39:40;93445.00;;;-2.50;100.00
67434;BME280;54305;47.950;6.572;2023-01-19T06:42:06;93447.38;;;-2.59;100.00
67434;BME280;54305;47.950;6.572;2023-01-19T06:44:31;93448.19;;;-2.59;100.00
67434;BME280;54305;47.950;6.572;2023-01-19T06:46:57;93452.19;;;-2.67;100.00
67434;BME280;54305;47.950;6.572;2023-01-19T06:49:22;93451.41;;;-2.68;100.00
67434;BME280;54305;47.950;6.572;2023-01-19T06:51:47;93458.13;;;-2.67;100.00
67434;BME280;54305;47.950;6.572;2023-01-19T06:54:12;93459.13;;;-2.69;100.00
67434;BME280;54305;47.950;6.572;2023-01-19T06:56:38;93465.16;;;-2.70;100.00
67434;BME280;54305;47.950;6.572;2023-01-19T06:59:03;93464.44;;;-2.72;100.00
67434;BME280;54305;47.950;6.572;2023-01-19T07:01:28;93459.56;;;-2.75;100.00
67434;BME280;54305;47.950;6.572;2023-01-19T07:03:54;93464.22;;;-2.69;100.00
67434;BME280;54305;47.950;6.572;2023-01-19T07:06:19;93464.00;;;-2.66;100.00
67434;BME280;54305;47.950;6.572;2023-01-19T07:08:44;93471.13;;;-2.59;100.00
67434;BME280;54305;47.950;6.572;2023-01-19T07:11:10;93475.81;;;-2.53;100.00
67434;BME280;54305;47.950;6.572;2023-01-19T07:13:36;93470.75;;;-2.65;100.00
67434;BME280;54305;47.950;6.572;2023-01-19T07:16:02;93478.16;;;-2.62;100.00
67434;BME280;54305;47.950;6.572;2023-01-19T07:18:29;93477.25;;;-2.61;100.00
67434;BME280;54305;47.950;6.572;2023-01-19T07:20:56;93478.56;;;-2.56;100.00
67434;BME280;54305;47.950;6.572;2023-01-19T07:23:21;93480.19;;;-2.55;100.00
67434;BME280;54305;47.950;6.572;2023-01-19T07:25:46;93479.50;;;-2.57;100.00
67434;BME280;54305;47.950;6.572;2023-01-19T07:28:11;93481.13;;;-2.56;100.00
67434;BME280;54305;47.950;6.572;2023-01-19T07:30:39;93480.69;;;-2.50;100.00
67434;BME280;54305;47.950;6.572;2023-01-19T07:33:05;93492.53;;;-2.49;100.00
67434;BME280;54305;47.950;6.572;2023-01-19T07:35:30;93485.16;;;-2.41;100.00
67434;BME280;54305;47.950;6.572;2023-01-19T07:37:57;93491.66;;;-2.37;100.00
67434;BME280;54305;47.950;6.572;2023-01-19T07:40:22;93486.56;;;-2.37;100.00
67434;BME280;54305;47.950;6.572;2023-01-19T07:42:48;93490.75;;;-2.36;100.00
67434;BME280;54305;47.950;6.572;2023-01-19T07:45:17;93493.88;;;-2.32;100.00
67434;BME280;54305;47.950;6.572;2023-01-19T07:47:44;93498.97;;;-2.32;100.00
67434;BME280;54305;47.950;6.572;2023-01-19T07:50:09;93506.34;;;-2.28;100.00
67434;BME280;54305;47.950;6.572;2023-01-19T07:52:35;93503.06;;;-2.30;100.00
67434;BME280;54305;47.950;6.572;2023-01-19T07:55:00;93506.34;;;-2.28;100.00
67434;BME280;54305;47.950;6.572;2023-01-19T07:57:25;93506.13;;;-2.25;100.00
67434;BME280;54305;47.950;6.572;2023-01-19T07:59:51;93502.41;;;-2.21;100.00
67434;BME280;54305;47.950;6.572;2023-01-19T08:02:16;93512.84;;;-2.24;100.00
67434;BME280;54305;47.950;6.572;2023-01-19T08:04:42;93503.59;;;-2.25;100.00
67434;BME280;54305;47.950;6.572;2023-01-19T08:07:07;93502.22;;;-2.18;100.00
67434;BME280;54305;47.950;6.572;2023-01-19T08:09:33;93503.41;;;-2.11;100.00
67434;BME280;54305;47.950;6.572;2023-01-19T08:12:02;93507.13;;;-2.15;100.00
67434;BME280;54305;47.950;6.572;2023-01-19T08:14:27;93504.22;;;-2.10;100.00
67434;BME280;54305;47.950;6.572;2023-01-19T08:16:53;93510.97;;;-2.09;100.00
67434;BME280;54305;47.950;6.572;2023-01-19T08:19:18;93511.97;;;-2.12;100.00
67434;BME280;54305;47.950;6.572;2023-01-19T08:21:43;93506.63;;;-2.20;100.00
67434;BME280;54305;47.950;6.572;2023-01-19T08:24:15;93519.13;;;-2.17;100.00
67434;BME280;54305;47.950;6.572;2023-01-19T08:26:42;93519.38;;;-2.20;100.00
67434;BME280;54305;47.950;6.572;2023-01-19T08:29:07;93527.13;;;-2.21;100.00
67434;BME280;54305;47.950;6.572;2023-01-19T08:31:36;93521.44;;;-2.25;100.00
67434;BME280;54305;47.950;6.572;2023-01-19T08:34:01;93527.91;;;-2.21;100.00
67434;BME280;54305;47.950;6.572;2023-01-19T08:36:27;93516.66;;;-2.06;100.00
67434;BME280;54305;47.950;6.572;2023-01-19T08:38:53;93524.00;;;-2.01;100.00
67434;BME280;54305;47.950;6.572;2023-01-19T08:41:18;93526.84;;;-1.93;100.00
67434;BME280;54305;47.950;6.572;2023-01-19T08:43:44;93522.53;;;-1.93;100.00
67434;BME280;54305;47.950;6.572;2023-01-19T08:46:12;93526.06;;;-2.06;100.00
67434;BME280;54305;47.950;6.572;2023-01-19T08:48:41;93527.88;;;-1.96;100.00
67434;BME280;54305;47.950;6.572;2023-01-19T08:51:07;93529.63;;;-1.85;100.00
67434;BME280;54305;47.950;6.572;2023-01-19T08:53:33;93517.16;;;-1.77;100.00
67434;BME280;54305;47.950;6.572;2023-01-19T08:55:58;93527.84;;;-1.72;100.00
67434;BME280;54305;47.950;6.572;2023-01-19T08:58:25;93530.34;;;-1.60;100.00
67434;BME280;54305;47.950;6.572;2023-01-19T09:00:50;93533.59;;;-1.58;100.00
67434;BME280;54305;47.950;6.572;2023-01-19T09:03:16;93530.88;;;-1.44;100.00
67434;BME280;54305;47.950;6.572;2023-01-19T09:05:42;93528.22;;;-1.89;100.00
67434;BME280;54305;47.950;6.572;2023-01-19T09:08:08;93531.34;;;-2.09;100.00
67434;BME280;54305;47.950;6.572;2023-01-19T09:10:34;93532.09;;;-2.07;100.00
67434;BME280;54305;47.950;6.572;2023-01-19T09:13:02;93532.97;;;-2.08;100.00
67434;BME280;54305;47.950;6.572;2023-01-19T09:15:32;93527.19;;;-1.87;100.00
67434;BME280;54305;47.950;6.572;2023-01-19T09:17:59;93529.81;;;-1.76;100.00
67434;BME280;54305;47.950;6.572;2023-01-19T09:20:25;93535.47;;;-1.60;100.00
67434;BME280;54305;47.950;6.572;2023-01-19T09:22:54;93536.22;;;-1.47;100.00
67434;BME280;54305;47.950;6.572;2023-01-19T09:25:19;93541.69;;;-1.40;100.00
67434;BME280;54305;47.950;6.572;2023-01-19T09:27:44;93537.84;;;-1.46;100.00
67434;BME280;54305;47.950;6.572;2023-01-19T09:30:10;93549.88;;;-1.48;100.00
67434;BME280;54305;47.950;6.572;2023-01-19T09:32:35;93552.59;;;-1.38;100.00
67434;BME280;54305;47.950;6.572;2023-01-19T09:35:00;93550.06;;;-1.38;100.00
67434;BME280;54305;47.950;6.572;2023-01-19T09:37:26;93545.66;;;-1.60;100.00
67434;BME280;54305;47.950;6.572;2023-01-19T09:39:51;93551.75;;;-1.50;100.00
67434;BME280;54305;47.950;6.572;2023-01-19T09:42:30;93545.00;;;-1.51;100.00
67434;BME280;54305;47.950;6.572;2023-01-19T09:44:57;93553.81;;;-1.55;100.00
67434;BME280;54305;47.950;6.572;2023-01-19T09:47:25;93549.66;;;-1.45;100.00
67434;BME280;54305;47.950;6.572;2023-01-19T09:49:55;93546.63;;;-1.50;100.00
67434;BME280;54305;47.950;6.572;2023-01-19T09:52:22;93552.91;;;-1.43;100.00
67434;BME280;54305;47.950;6.572;2023-01-19T09:54:55;93558.31;;;-1.58;100.00
67434;BME280;54305;47.950;6.572;2023-01-19T09:57:21;93560.38;;;-1.63;100.00
67434;BME280;54305;47.950;6.572;2023-01-19T09:59:47;93554.00;;;-1.58;100.00
67434;BME280;54305;47.950;6.572;2023-01-19T10:05:04;93562.41;;;-1.92;100.00
67434;BME280;54305;47.950;6.572;2023-01-19T10:07:38;93557.69;;;-2.09;100.00
67434;BME280;54305;47.950;6.572;2023-01-19T10:15:16;93567.94;;;-2.34;100.00
67434;BME280;54305;47.950;6.572;2023-01-19T10:17:50;93578.28;;;-2.12;100.00
67434;BME280;54305;47.950;6.572;2023-01-19T10:20:36;93577.53;;;-2.25;100.00
67434;BME280;54305;47.950;6.572;2023-01-19T10:23:04;93572.91;;;-2.20;100.00
67434;BME280;54305;47.950;6.572;2023-01-19T10:25:40;93574.44;;;-2.30;100.00
67434;BME280;54305;47.950;6.572;2023-01-19T10:28:06;93572.91;;;-2.20;100.00
67434;BME280;54305;47.950;6.572;2023-01-19T10:30:33;93565.19;;;-1.95;100.00
67434;BME280;54305;47.950;6.572;2023-01-19T10:32:59;93569.88;;;-1.89;100.00
67434;BME280;54305;47.950;6.572;2023-01-19T10:35:24;93571.91;;;-1.94;100.00
67434;BME280;54305;47.950;6.572;2023-01-19T10:37:53;93569.50;;;-2.08;100.00
67434;BME280;54305;47.950;6.572;2023-01-19T10:40:55;93569.06;;;-2.02;100.00
67434;BME280;54305;47.950;6.572;2023-01-19T10:45:56;93571.75;;;-2.16;100.00
67434;BME280;54305;47.950;6.572;2023-01-19T10:48:22;93562.78;;;-2.09;100.00
67434;BME280;54305;47.950;6.572;2023-01-19T10:50:47;93567.50;;;-2.15;100.00
67434;BME280;54305;47.950;6.572;2023-01-19T10:53:25;93564.22;;;-2.05;100.00
67434;BME280;54305;47.950;6.572;2023-01-19T10:56:07;93569.06;;;-2.02;100.00
67434;BME280;54305;47.950;6.572;2023-01-19T10:58:33;93567.13;;;-2.34;100.00
67434;BME280;54305;47.950;6.572;2023-01-19T11:01:11;93564.84;;;-2.14;100.00
67434;BME280;54305;47.950;6.572;2023-01-19T11:03:37;93559.88;;;-1.92;100.00
67434;BME280;54305;47.950;6.572;2023-01-19T11:06:24;93563.28;;;-1.80;100.00
67434;BME280;54305;47.950;6.572;2023-01-19T11:08:49;93554.94;;;-1.82;100.00
67434;BME280;54305;47.950;6.572;2023-01-19T11:11:16;93552.66;;;-1.74;100.00
67434;BME280;54305;47.950;6.572;2023-01-19T11:13:41;93555.34;;;-1.76;100.00
67434;BME280;54305;47.950;6.572;2023-01-19T11:18:40;93557.66;;;-1.73;100.00
67434;BME280;54305;47.950;6.572;2023-01-19T11:21:11;93554.94;;;-1.82;100.00
67434;BME280;54305;47.950;6.572;2023-01-19T11:23:56;93561.72;;;-1.94;100.00
67434;BME280;54305;47.950;6.572;2023-01-19T11:26:26;93559.78;;;-1.67;100.00
67434;BME280;54305;47.950;6.572;2023-01-19T11:28:53;93554.25;;;-1.61;100.00
67434;BME280;54305;47.950;6.572;2023-01-19T11:33:56;93552.38;;;-1.59;100.00
67434;BME280;54305;47.950;6.572;2023-01-19T11:36:22;93550.78;;;-1.60;100.00
67434;BME280;54305;47.950;6.572;2023-01-19T11:38:49;93547.31;;;-1.48;100.00
67434;BME280;54305;47.950;6.572;2023-01-19T11:41:16;93556.91;;;-1.62;100.00
67434;BME280;54305;47.950;6.572;2023-01-19T11:43:42;93544.16;;;-1.86;100.00
67434;BME280;54305;47.950;6.572;2023-01-19T11:46:08;93541.00;;;-1.66;100.00
67434;BME280;54305;47.950;6.572;2023-01-19T11:48:36;93541.66;;;-1.75;100.00
67434;BME280;54305;47.950;6.572;2023-01-19T11:51:03;93533.50;;;-1.80;100.00
67434;BME280;54305;47.950;6.572;2023-01-19T11:53:33;93533.56;;;-1.69;100.00
67434;BME280;54305;47.950;6.572;2023-01-19T11:56:07;93532.34;;;-1.52;100.00
67434;BME280;54305;47.950;6.572;2023-01-19T11:58:36;93537.06;;;-1.59;100.00
67434;BME280;54305;47.950;6.572;2023-01-19T12:03:36;93530.72;;;-1.77;100.00
67434;BME280;54305;47.950;6.572;2023-01-19T12:06:06;93523.50;;;-1.83;100.00
67434;BME280;54305;47.950;6.572;2023-01-19T12:08:38;93522.91;;;-1.63;100.00
67434;BME280;54305;47.950;6.572;2023-01-19T12:11:05;93522.22;;;-1.65;100.00
67434;BME280;54305;47.950;6.572;2023-01-19T12:13:31;93525.13;;;-1.82;100.00
67434;BME280;54305;47.950;6.572;2023-01-19T12:16:08;93523.72;;;-1.62;100.00
67434;BME280;54305;47.950;6.572;2023-01-19T12:18:38;93529.88;;;-1.88;100.00
67434;BME280;54305;47.950;6.572;2023-01-19T12:21:04;93526.78;;;-1.81;100.00
67434;BME280;54305;47.950;6.572;2023-01-19T12:26:02;93522.00;;;-1.62;100.00
67434;BME280;54305;47.950;6.572;2023-01-19T12:28:33;93521.56;;;-1.56;100.00
67434;BME280;54305;47.950;6.572;2023-01-19T12:31:01;93523.38;;;-1.58;100.00
67434;BME280;54305;47.950;6.572;2023-01-19T12:35:59;93509.28;;;-1.51;100.00
67434;BME280;54305;47.950;6.572;2023-01-19T12:38:32;93513.47;;;-1.39;100.00
67434;BME280;54305;47.950;6.572;2023-01-19T12:43:39;93501.72;;;-1.18;100.00
67434;BME280;54305;47.950;6.572;2023-01-19T12:46:17;93494.91;;;-1.41;100.00
67434;BME280;54305;47.950;6.572;2023-01-19T12:48:42;93500.16;;;-1.66;100.00
67434;BME280;54305;47.950;6.572;2023-01-19T12:51:07;93499.94;;;-1.63;100.00
67434;BME280;54305;47.950;6.572;2023-01-19T12:53:33;93501.31;;;-1.70;100.00
67434;BME280;54305;47.950;6.572;2023-01-19T12:55:58;93500.78;;;-1.86;100.00
67434;BME280;54305;47.950;6.572;2023-01-19T12:58:24;93501.00;;;-1.89;100.00
67434;BME280;54305;47.950;6.572;2023-01-19T13:01:10;93501.50;;;-1.73;100.00
67434;BME280;54305;47.950;6.572;2023-01-19T13:03:43;93506.84;;;-1.76;100.00
67434;BME280;54305;47.950;6.572;2023-01-19T13:06:08;93501.28;;;-1.81;100.00
67434;BME280;54305;47.950;6.572;2023-01-19T13:11:18;93499.06;;;-1.51;100.00
67434;BME280;54305;47.950;6.572;2023-01-19T13:21:37;93492.84;;;-1.36;100.00
67434;BME280;54305;47.950;6.572;2023-01-19T13:24:07;93495.59;;;-1.39;100.00
67434;BME280;54305;47.950;6.572;2023-01-19T13:31:35;93491.69;;;-1.32;100.00
67434;BME280;54305;47.950;6.572;2023-01-19T13:34:01;93485.69;;;-1.20;100.00
67434;BME280;54305;47.950;6.572;2023-01-19T13:38:57;93490.25;;;-1.47;100.00